createdAt,value
2022-10-25T00:00:46.847Z,8.32
2022-10-25T00:03:13.612Z,6.80
2022-10-25T00:05:42.522Z,7.43
2022-10-25T00:08:10.341Z,7.47
2022-10-25T00:10:38.174Z,7.60
2022-10-25T00:13:06.368Z,6.88
2022-10-25T00:15:33.130Z,7.47
2022-10-25T00:17:59.768Z,7.03
2022-10-25T00:20:29.331Z,7.70
2022-10-25T00:22:55.930Z,7.07
2022-10-25T00:25:22.850Z,7.90
2022-10-25T00:27:49.472Z,7.85
2022-10-25T00:30:16.204Z,7.65
2022-10-25T00:32:42.795Z,6.90
2022-10-25T00:35:12.530Z,7.63
2022-10-25T00:37:39.644Z,7.78
2022-10-25T00:40:07.586Z,6.80
2022-10-25T00:42:37.343Z,7.60
2022-10-25T00:45:26.035Z,8.38
2022-10-25T00:48:09.758Z,7.55
2022-10-25T00:50:54.333Z,7.80
2022-10-25T00:56:26.408Z,7.00
2022-10-25T00:59:04.850Z,7.93
2022-10-25T01:01:36.043Z,7.50
2022-10-25T01:04:11.544Z,6.90
2022-10-25T01:06:53.220Z,10.02
2022-10-25T01:09:32.573Z,8.40
2022-10-25T01:12:05.214Z,8.65
2022-10-25T01:14:37.518Z,7.95
2022-10-25T01:17:36.371Z,9.00
2022-10-25T01:20:43.590Z,7.20
2022-10-25T01:23:47.372Z,7.80
2022-10-25T01:27:12.168Z,7.60
2022-10-25T01:30:04.171Z,8.27
2022-10-25T01:33:11.896Z,7.43
2022-10-25T01:35:51.093Z,7.85
2022-10-25T01:38:29.954Z,6.53
2022-10-25T01:41:40.568Z,6.53
2022-10-25T01:44:39.586Z,7.85
2022-10-25T01:47:23.926Z,7.47
2022-10-25T01:50:07.409Z,6.55
2022-10-25T01:52:34.093Z,6.43
2022-10-25T01:55:06.046Z,6.82
2022-10-25T01:57:58.607Z,5.22
2022-10-25T02:00:26.870Z,5.43
2022-10-25T02:03:23.215Z,5.47
2022-10-25T02:06:18.480Z,5.32
2022-10-25T02:09:07.865Z,6.00
2022-10-25T02:11:36.721Z,5.10
2022-10-25T02:14:33.140Z,5.60
2022-10-25T02:17:22.210Z,5.57
2022-10-25T02:19:56.432Z,5.13
2022-10-25T02:24:58.229Z,5.40
2022-10-25T02:27:30.069Z,4.85
2022-10-25T02:30:01.352Z,4.85
2022-10-25T02:32:34.193Z,5.18
2022-10-25T02:35:00.855Z,5.68
2022-10-25T02:37:27.586Z,5.88
2022-10-25T02:39:55.136Z,8.43
2022-10-25T02:42:21.800Z,6.88
2022-10-25T02:44:48.409Z,6.15
2022-10-25T02:47:15.230Z,6.25
2022-10-25T02:49:41.877Z,7.88
2022-10-25T02:52:08.680Z,6.68
2022-10-25T02:54:35.323Z,8.52
2022-10-25T02:57:10.955Z,8.80
2022-10-25T02:59:40.377Z,7.68
2022-10-25T03:02:06.977Z,9.20
2022-10-25T03:04:33.606Z,9.20
2022-10-25T03:07:00.428Z,10.15
2022-10-25T03:09:27.157Z,11.63
2022-10-25T03:11:58.895Z,10.18
2022-10-25T03:14:25.695Z,11.30
2022-10-25T03:17:03.546Z,11.35
2022-10-25T03:19:33.118Z,10.90
2022-10-25T03:21:59.828Z,11.90
2022-10-25T03:24:26.557Z,12.68
2022-10-25T03:26:53.190Z,13.23
2022-10-25T03:29:20.305Z,12.30
2022-10-25T03:31:49.362Z,11.30
2022-10-25T03:34:19.089Z,13.23
2022-10-25T03:36:48.732Z,12.60
2022-10-25T03:39:15.358Z,11.43
2022-10-25T03:41:44.720Z,14.32
2022-10-25T03:44:11.356Z,12.70
2022-10-25T03:46:38.265Z,13.95
2022-10-25T03:49:06.513Z,13.07
2022-10-25T03:51:33.209Z,15.45
2022-10-25T03:54:01.801Z,13.23
2022-10-25T03:56:28.442Z,12.88
2022-10-25T03:58:57.993Z,16.25
2022-10-25T04:01:24.735Z,14.35
2022-10-25T04:03:51.395Z,15.55
2022-10-25T04:06:18.062Z,15.20
2022-10-25T04:08:44.698Z,15.35
2022-10-25T04:11:11.388Z,15.55
2022-10-25T04:13:38.031Z,14.88
2022-10-25T04:16:09.976Z,14.57
2022-10-25T04:18:37.039Z,14.68
2022-10-25T04:22:27.367Z,14.98
2022-10-25T04:24:26.743Z,15.18
2022-10-25T04:26:55.951Z,14.02
2022-10-25T04:29:23.065Z,14.88
2022-10-25T04:31:52.032Z,16.45
2022-10-25T04:34:19.977Z,15.05
2022-10-25T04:36:59.280Z,16.05
2022-10-25T04:39:26.333Z,15.80
2022-10-25T04:41:53.056Z,15.10
2022-10-25T04:44:19.787Z,15.60
2022-10-25T04:46:48.762Z,14.93
2022-10-25T04:49:17.257Z,13.80
2022-10-25T04:51:47.248Z,13.50
2022-10-25T04:54:14.375Z,15.50
2022-10-25T04:56:46.993Z,14.70
2022-10-25T04:59:14.717Z,14.85
2022-10-25T05:01:41.918Z,15.40
2022-10-25T05:04:08.755Z,13.43
2022-10-25T05:06:35.691Z,14.95
2022-10-25T05:09:04.023Z,14.38
2022-10-25T05:11:30.843Z,14.43
2022-10-25T05:13:57.608Z,15.65
2022-10-25T05:16:26.033Z,14.35
2022-10-25T05:18:55.475Z,14.40
2022-10-25T05:21:30.683Z,14.80
2022-10-25T05:24:01.963Z,13.20
2022-10-25T05:26:31.384Z,13.55
2022-10-25T05:28:58.604Z,13.95
2022-10-25T05:31:30.291Z,15.23
2022-10-25T05:34:03.419Z,14.60
2022-10-25T05:36:32.418Z,12.63
2022-10-25T05:39:01.690Z,14.07
2022-10-25T05:41:31.880Z,13.65
2022-10-25T05:44:03.431Z,12.88
2022-10-25T05:46:42.510Z,13.38
2022-10-25T05:49:11.765Z,12.10
2022-10-25T05:51:39.558Z,14.05
2022-10-25T05:54:16.053Z,12.00
2022-10-25T05:56:44.077Z,12.75
2022-10-25T05:59:18.037Z,13.25
2022-10-25T06:01:47.162Z,12.45
2022-10-25T06:04:15.792Z,13.45
2022-10-25T06:06:46.426Z,14.00
2022-10-25T06:09:14.242Z,15.00
2022-10-25T06:11:41.316Z,13.05
2022-10-25T06:14:11.409Z,14.45
2022-10-25T06:16:39.438Z,14.23
2022-10-25T06:19:08.631Z,14.35
2022-10-25T06:21:35.946Z,16.13
2022-10-25T06:24:04.240Z,15.73
2022-10-25T06:26:32.817Z,16.70
2022-10-25T06:29:04.609Z,15.25
2022-10-25T06:31:33.610Z,16.30
2022-10-25T06:34:02.727Z,15.18
2022-10-25T06:36:34.145Z,15.43
2022-10-25T06:39:05.837Z,16.70
2022-10-25T06:41:37.029Z,18.33
2022-10-25T06:44:06.516Z,17.52
2022-10-25T06:47:04.474Z,19.08
2022-10-25T06:49:25.071Z,17.55
2022-10-25T06:51:51.717Z,19.52
2022-10-25T06:54:18.403Z,16.85
2022-10-25T06:56:45.029Z,17.58
2022-10-25T06:59:11.786Z,19.02
2022-10-25T07:01:38.468Z,16.85
2022-10-25T07:04:05.453Z,19.75
2022-10-25T07:06:35.925Z,17.95
2022-10-25T07:09:06.617Z,17.52
2022-10-25T07:11:33.900Z,17.55
2022-10-25T07:14:03.249Z,17.05
2022-10-25T07:16:34.113Z,19.25
2022-10-25T07:19:04.340Z,19.20
2022-10-25T07:21:33.293Z,19.15
2022-10-25T07:24:00.296Z,19.10
2022-10-25T07:26:34.117Z,17.40
2022-10-25T07:29:04.103Z,19.42
2022-10-25T07:31:40.871Z,16.75
2022-10-25T07:34:16.610Z,18.13
2022-10-25T07:36:43.411Z,18.27
2022-10-25T07:39:12.918Z,16.67
2022-10-25T07:41:39.553Z,17.27
2022-10-25T07:44:06.402Z,18.75
2022-10-25T07:46:33.078Z,18.40
2022-10-25T07:49:00.928Z,16.77
2022-10-25T07:51:27.740Z,18.23
2022-10-25T07:53:54.552Z,16.80
2022-10-25T07:56:23.720Z,15.63
2022-10-25T07:58:52.441Z,17.13
2022-10-25T08:01:27.803Z,16.42
2022-10-25T08:03:56.433Z,16.67
2022-10-25T08:06:25.998Z,16.25
2022-10-25T08:08:53.537Z,15.80
2022-10-25T08:11:20.677Z,15.80
2022-10-25T08:13:50.769Z,15.18
2022-10-25T08:16:18.623Z,14.68
2022-10-25T08:18:45.869Z,14.05
2022-10-25T08:21:12.670Z,14.10
2022-10-25T08:23:39.350Z,14.80
2022-10-25T08:26:06.506Z,13.68
2022-10-25T08:28:33.317Z,12.95
2022-10-25T08:31:01.277Z,13.55
2022-10-25T08:33:32.503Z,13.00
2022-10-25T08:36:03.768Z,14.52
2022-10-25T08:38:30.738Z,13.35
2022-10-25T08:41:28.866Z,13.10
2022-10-25T08:44:14.024Z,12.32
2022-10-25T08:47:22.676Z,13.70
2022-10-25T08:50:20.082Z,12.65
2022-10-25T08:52:58.912Z,12.35
2022-10-25T08:56:04.981Z,11.85
2022-10-25T08:58:53.947Z,13.10
2022-10-25T09:01:44.047Z,12.95
2022-10-25T09:04:11.533Z,10.10
2022-10-25T09:07:14.709Z,11.25
2022-10-25T09:10:27.421Z,12.05
2022-10-25T09:13:40.136Z,11.32
2022-10-25T09:16:24.000Z,12.00
2022-10-25T09:18:55.367Z,11.65
2022-10-25T09:21:44.978Z,10.52
2022-10-25T09:24:29.829Z,10.68
2022-10-25T09:27:15.540Z,10.05
2022-10-25T09:29:54.467Z,10.40
2022-10-25T09:32:49.073Z,11.15
2022-10-25T09:35:44.110Z,12.20
2022-10-25T09:38:53.595Z,11.07
2022-10-25T09:41:40.875Z,9.77
2022-10-25T09:44:38.891Z,10.85
2022-10-25T09:47:35.407Z,10.27
2022-10-25T09:50:35.049Z,10.55
2022-10-25T09:53:19.041Z,11.20
2022-10-25T09:55:58.557Z,9.73
2022-10-25T09:58:30.544Z,9.32
2022-10-25T10:01:25.336Z,9.00
2022-10-25T10:06:37.604Z,8.30
2022-10-25T10:09:14.398Z,8.60
2022-10-25T10:11:43.946Z,9.30
2022-10-25T10:14:35.993Z,8.15
2022-10-25T10:17:17.995Z,7.93
2022-10-25T10:20:04.562Z,9.63
2022-10-25T10:25:27.245Z,8.32
2022-10-25T10:27:58.053Z,7.15
2022-10-25T10:30:33.050Z,6.90
2022-10-25T10:33:09.498Z,7.43
2022-10-25T10:35:37.896Z,6.95
2022-10-25T10:38:28.859Z,6.35
2022-10-25T10:41:22.208Z,6.38
2022-10-25T10:43:48.975Z,6.72
2022-10-25T10:46:20.121Z,7.25
2022-10-25T10:48:57.964Z,7.47
2022-10-25T10:51:44.790Z,5.82
2022-10-25T10:54:34.585Z,6.30
2022-10-25T10:57:06.146Z,6.78
2022-10-25T11:05:39.676Z,4.30
2022-10-25T11:08:12.071Z,4.35
2022-10-25T11:10:40.226Z,4.75
2022-10-25T11:13:19.787Z,5.10
2022-10-25T11:16:37.825Z,4.65
2022-10-25T11:19:32.833Z,5.20
2022-10-25T11:22:24.312Z,4.28
2022-10-25T11:25:07.373Z,4.15
2022-10-25T11:28:19.681Z,5.15
2022-10-25T11:31:34.184Z,4.97
2022-10-25T11:34:46.027Z,4.20
2022-10-25T11:37:52.969Z,4.53
2022-10-25T11:40:41.253Z,4.45
2022-10-25T11:43:42.811Z,4.97
2022-10-25T11:46:51.276Z,4.18
2022-10-25T11:49:57.802Z,4.65
2022-10-25T11:53:20.231Z,4.22
2022-10-25T11:56:39.427Z,3.80
2022-10-25T12:00:02.056Z,3.92
2022-10-25T12:03:17.488Z,4.00
2022-10-25T12:09:12.807Z,4.25
2022-10-25T12:11:58.293Z,3.70
2022-10-25T12:14:38.127Z,3.88
2022-10-25T12:17:33.990Z,3.28
2022-10-25T12:20:19.850Z,3.65
2022-10-25T12:22:53.851Z,3.15
2022-10-25T12:25:40.144Z,2.90
2022-10-25T12:28:31.465Z,4.32
2022-10-25T12:31:18.702Z,4.07
2022-10-25T12:34:35.403Z,2.88
2022-10-25T12:37:24.358Z,3.72
2022-10-25T12:39:52.358Z,3.67
2022-10-25T12:42:31.234Z,4.70
2022-10-25T12:46:07.191Z,3.60
2022-10-25T12:49:26.592Z,4.20
2022-10-25T12:52:16.402Z,3.10
2022-10-25T12:55:36.947Z,3.22
2022-10-25T12:59:18.646Z,4.20
2022-10-25T13:06:36.067Z,3.95
2022-10-25T13:09:34.473Z,3.75
2022-10-25T13:12:30.453Z,3.22
2022-10-25T13:15:05.152Z,3.13
2022-10-25T13:17:41.065Z,2.72
2022-10-25T13:20:21.907Z,3.58
2022-10-25T13:22:48.952Z,3.63
2022-10-25T13:25:47.586Z,3.22
2022-10-25T13:28:14.166Z,2.97
2022-10-25T13:30:43.028Z,3.03
2022-10-25T13:36:05.688Z,3.20
2022-10-25T13:38:39.893Z,2.95
2022-10-25T13:41:27.487Z,3.20
2022-10-25T13:44:04.651Z,3.33
2022-10-25T13:46:41.104Z,3.20
2022-10-25T13:49:44.882Z,3.60
2022-10-25T13:52:33.292Z,4.43
2022-10-25T13:55:10.598Z,3.22
2022-10-25T13:57:55.541Z,3.83
2022-10-25T14:00:54.689Z,4.50
2022-10-25T14:03:46.799Z,4.40
2022-10-25T14:06:41.657Z,3.40
2022-10-25T14:09:43.810Z,4.00
2022-10-25T14:12:55.058Z,3.95
2022-10-25T14:15:53.042Z,3.17
2022-10-25T14:18:23.885Z,3.40
2022-10-25T14:21:00.632Z,3.30
2022-10-25T14:23:34.603Z,3.50
2022-10-25T14:26:06.090Z,3.00
2022-10-25T14:28:36.871Z,3.33
2022-10-25T14:31:06.713Z,4.05
2022-10-25T14:33:54.324Z,3.53
2022-10-25T14:36:29.576Z,3.63
2022-10-25T14:39:23.981Z,3.10
2022-10-25T14:42:17.844Z,4.03
2022-10-25T14:44:50.618Z,4.47
2022-10-25T14:47:34.274Z,3.63
2022-10-25T14:52:36.960Z,3.28
2022-10-25T14:55:06.950Z,3.10
2022-10-25T14:57:34.701Z,3.78
2022-10-25T15:00:05.542Z,3.70
2022-10-25T15:02:40.422Z,3.78
2022-10-25T15:05:18.574Z,3.55
2022-10-25T15:07:49.043Z,3.28
2022-10-25T15:10:34.483Z,3.63
2022-10-25T15:13:13.763Z,3.28
2022-10-25T15:15:46.510Z,4.00
2022-10-25T15:18:32.655Z,3.80
2022-10-25T15:21:13.537Z,4.03
2022-10-25T15:23:44.291Z,5.35
2022-10-25T15:26:36.849Z,4.05
2022-10-25T15:29:07.660Z,4.65
2022-10-25T15:31:34.351Z,3.78
2022-10-25T15:34:06.106Z,3.70
2022-10-25T15:36:34.546Z,3.90
2022-10-25T15:39:22.779Z,4.13
2022-10-25T15:41:49.348Z,3.53
2022-10-25T15:44:18.982Z,4.45
2022-10-25T15:46:48.856Z,4.35
2022-10-25T15:49:17.045Z,4.68
2022-10-25T15:51:46.230Z,4.95
2022-10-25T15:54:23.787Z,4.63
2022-10-25T15:56:54.775Z,4.20
2022-10-25T15:59:21.993Z,4.47
2022-10-25T16:01:55.033Z,4.13
2022-10-25T16:04:21.882Z,4.18
2022-10-25T16:06:48.680Z,4.45
2022-10-25T16:09:15.608Z,4.50
2022-10-25T16:11:57.415Z,4.03
2022-10-25T16:14:28.716Z,3.78
2022-10-25T16:16:58.760Z,3.67
2022-10-25T16:19:27.645Z,4.50
2022-10-25T16:21:55.351Z,3.75
2022-10-25T16:24:22.033Z,3.72
2022-10-25T16:26:51.103Z,4.35
2022-10-25T16:29:25.513Z,3.97
2022-10-25T16:31:53.835Z,3.65
2022-10-25T16:34:20.745Z,5.60
2022-10-25T16:36:50.433Z,4.10
2022-10-25T16:39:17.656Z,4.43
2022-10-25T16:41:47.363Z,5.10
2022-10-25T16:44:19.269Z,4.28
2022-10-25T16:46:47.438Z,4.75
2022-10-25T16:49:14.414Z,4.82
2022-10-25T16:51:41.800Z,5.60
2022-10-25T16:54:11.850Z,5.00
2022-10-25T16:56:39.576Z,4.72
2022-10-25T16:59:06.244Z,4.07
2022-10-25T17:01:38.954Z,3.95
2022-10-25T17:04:09.510Z,3.95
2022-10-25T17:06:41.283Z,6.72
2022-10-25T17:09:08.996Z,4.82
2022-10-25T17:11:36.269Z,5.47
2022-10-25T17:14:03.797Z,5.32
2022-10-25T17:16:33.701Z,5.10
2022-10-25T17:19:03.108Z,4.53
2022-10-25T17:21:35.647Z,6.65
2022-10-25T17:24:07.107Z,4.80
2022-10-25T17:26:33.791Z,5.28
2022-10-25T17:29:03.156Z,5.15
2022-10-25T17:31:34.474Z,5.65
2022-10-25T17:34:03.598Z,5.82
2022-10-25T17:36:33.000Z,5.68
2022-10-25T17:39:04.183Z,4.82
2022-10-25T17:41:34.183Z,5.80
2022-10-25T17:44:02.908Z,5.35
2022-10-25T17:46:35.522Z,5.40
2022-10-25T17:49:06.655Z,7.95
2022-10-25T17:51:35.738Z,5.10
2022-10-25T17:54:05.461Z,6.22
2022-10-25T17:56:35.290Z,5.50
2022-10-25T17:59:10.816Z,6.32
2022-10-25T18:01:37.609Z,6.97
2022-10-25T18:04:04.485Z,5.10
2022-10-25T18:06:36.019Z,6.82
2022-10-25T18:09:04.890Z,5.93
2022-10-25T18:11:34.554Z,6.05
2022-10-25T18:14:02.368Z,5.78
2022-10-25T18:16:35.558Z,7.25
2022-10-25T18:19:05.604Z,5.60
2022-10-25T18:21:33.674Z,5.38
2022-10-25T18:24:04.929Z,6.20
2022-10-25T18:26:34.919Z,6.32
2022-10-25T18:29:04.812Z,6.90
2022-10-25T18:31:34.787Z,6.47
2022-10-25T18:34:05.037Z,7.05
2022-10-25T18:36:34.154Z,8.25
2022-10-25T18:39:00.872Z,5.93
2022-10-25T18:41:33.512Z,7.40
2022-10-25T18:44:03.599Z,6.20
2022-10-25T18:46:38.010Z,6.22
2022-10-25T18:49:04.854Z,6.45
2022-10-25T18:51:34.468Z,7.10
2022-10-25T18:54:05.209Z,7.90
2022-10-25T18:56:34.989Z,6.80
2022-10-25T18:59:01.903Z,7.22
2022-10-25T19:01:33.199Z,7.72
2022-10-25T19:04:03.765Z,6.75
2022-10-25T19:06:34.632Z,7.22
2022-10-25T19:09:02.982Z,6.93
2022-10-25T19:11:34.502Z,6.90
2022-10-25T19:14:03.075Z,7.43
2022-10-25T19:16:29.747Z,7.35
2022-10-25T19:18:56.682Z,7.35
2022-10-25T19:21:24.722Z,6.90
2022-10-25T19:23:54.074Z,6.80
2022-10-25T19:26:21.565Z,7.90
2022-10-25T19:28:59.827Z,7.35
2022-10-25T19:31:30.775Z,7.72
2022-10-25T19:34:03.057Z,8.35
2022-10-25T19:36:39.182Z,8.57
2022-10-25T19:39:06.045Z,9.05
2022-10-25T19:41:32.891Z,9.70
2022-10-25T19:43:59.689Z,10.13
2022-10-25T19:46:26.381Z,9.50
2022-10-25T19:48:56.371Z,9.77
2022-10-25T19:51:23.562Z,10.55
2022-10-25T19:53:50.511Z,10.52
2022-10-25T19:56:22.401Z,11.02
2022-10-25T19:58:50.345Z,9.98
2022-10-25T20:01:27.274Z,10.70
2022-10-25T20:03:59.944Z,9.55
2022-10-25T20:06:34.717Z,10.57
2022-10-25T20:09:05.847Z,9.48
2022-10-25T20:11:35.522Z,10.75
2022-10-25T20:14:05.479Z,11.00
2022-10-25T20:16:36.070Z,10.30
2022-10-25T20:19:07.922Z,10.93
2022-10-25T20:21:36.983Z,9.75
2022-10-25T20:24:08.811Z,10.73
2022-10-25T20:26:41.115Z,10.10
2022-10-25T20:29:21.349Z,10.68
2022-10-25T20:31:50.987Z,10.07
2022-10-25T20:34:20.014Z,10.70
2022-10-25T20:36:48.691Z,9.25
2022-10-25T20:39:15.907Z,11.27
2022-10-25T20:41:43.507Z,9.73
2022-10-25T20:44:10.852Z,11.13
2022-10-25T20:46:37.524Z,10.48
2022-10-25T20:49:04.802Z,10.55
2022-10-25T20:51:34.937Z,11.20
2022-10-25T20:54:05.203Z,11.10
2022-10-25T20:56:34.947Z,11.18
2022-10-25T20:59:01.557Z,11.88
2022-10-25T21:01:28.444Z,11.57
2022-10-25T21:03:55.170Z,12.20
2022-10-25T21:06:21.893Z,11.77
2022-10-25T21:08:48.616Z,11.30
2022-10-25T21:11:15.602Z,11.55
2022-10-25T21:13:46.684Z,11.80
2022-10-25T21:16:19.348Z,12.93
2022-10-25T21:18:48.960Z,13.27
2022-10-25T21:21:20.469Z,13.40
2022-10-25T21:23:55.674Z,13.55
2022-10-25T21:26:23.273Z,11.68
2022-10-25T21:28:49.946Z,13.13
2022-10-25T21:31:17.164Z,12.98
2022-10-25T21:33:50.114Z,13.10
2022-10-25T21:36:20.369Z,12.18
2022-10-25T21:38:47.993Z,13.43
2022-10-25T21:41:20.748Z,13.02
2022-10-25T21:43:50.819Z,14.07
2022-10-25T21:46:21.412Z,13.63
2022-10-25T21:48:52.468Z,15.20
2022-10-25T21:51:26.757Z,15.40
2022-10-25T21:56:23.283Z,14.25
2022-10-25T21:58:50.874Z,15.07
2022-10-25T22:01:26.039Z,13.80
2022-10-25T22:03:53.018Z,15.38
2022-10-25T22:06:23.209Z,15.68
2022-10-25T22:08:51.516Z,15.45
2022-10-25T22:11:29.596Z,15.60
2022-10-25T22:14:03.757Z,15.18
2022-10-25T22:16:33.252Z,14.88
2022-10-25T22:19:12.732Z,15.05
2022-10-25T22:21:43.843Z,15.25
2022-10-25T22:24:12.733Z,15.75
2022-10-25T22:26:45.332Z,15.68
2022-10-25T22:29:16.890Z,14.43
2022-10-25T22:31:43.662Z,14.55
2022-10-25T22:34:10.738Z,15.70
2022-10-25T22:36:44.583Z,15.35
2022-10-25T22:39:11.300Z,16.23
2022-10-25T22:41:38.086Z,15.75
2022-10-25T22:44:05.146Z,15.45
2022-10-25T22:46:36.164Z,15.75
2022-10-25T22:49:09.411Z,15.77
2022-10-25T22:51:38.086Z,17.15
2022-10-25T22:54:05.152Z,15.85
2022-10-25T22:56:33.618Z,15.85
2022-10-25T22:59:04.938Z,18.33
2022-10-25T23:01:43.437Z,16.05
2022-10-25T23:04:10.544Z,16.52
2022-10-25T23:06:40.335Z,16.80
2022-10-25T23:09:10.644Z,18.05
2022-10-25T23:11:40.789Z,15.95
2022-10-25T23:14:13.273Z,16.40
2022-10-25T23:16:43.261Z,17.17
2022-10-25T23:19:09.905Z,17.38
2022-10-25T23:21:36.566Z,18.38
2022-10-25T23:24:03.613Z,20.17
2022-10-25T23:26:37.569Z,19.38
2022-10-25T23:29:05.564Z,21.13
2022-10-25T23:31:36.447Z,19.90
2022-10-25T23:34:03.233Z,20.70
2022-10-25T23:36:38.259Z,21.35
2022-10-25T23:39:07.991Z,21.17
2022-10-25T23:41:34.699Z,21.20
2022-10-25T23:44:01.568Z,22.83
2022-10-25T23:46:28.204Z,21.60
2022-10-25T23:48:55.024Z,21.90
2022-10-25T23:51:21.791Z,21.70
2022-10-25T23:53:52.011Z,21.67
2022-10-25T23:56:18.637Z,21.75
2022-10-25T23:58:45.398Z,22.58
